createdAt,value
2017-05-30T00:00:56.182Z,1004.49
2017-05-30T00:01:56.167Z,1004.47
2017-05-30T00:02:56.151Z,1004.46
2017-05-30T00:03:56.138Z,1004.5
2017-05-30T00:04:56.120Z,1004.53
2017-05-30T00:05:56.098Z,1004.51
2017-05-30T00:06:56.082Z,1004.55
2017-05-30T00:07:56.065Z,1004.59
2017-05-30T00:08:56.047Z,1004.63
2017-05-30T00:09:56.032Z,1004.71
2017-05-30T00:10:56.013Z,1004.7
2017-05-30T00:11:55.998Z,1004.73
2017-05-30T00:12:55.981Z,1004.81
2017-05-30T00:13:55.963Z,1004.77
2017-05-30T00:14:55.945Z,1004.8
2017-05-30T00:15:55.928Z,1004.81
2017-05-30T00:16:55.911Z,1004.82
2017-05-30T00:17:55.893Z,1004.9
2017-05-30T00:18:55.881Z,1004.9
2017-05-30T00:19:55.859Z,1004.93
2017-05-30T00:20:55.842Z,1004.98
2017-05-30T00:21:55.825Z,1004.97
2017-05-30T00:22:55.806Z,1004.96
2017-05-30T00:23:55.789Z,1004.9
2017-05-30T00:24:55.771Z,1004.9
2017-05-30T00:25:55.759Z,1004.89
2017-05-30T00:26:55.737Z,1004.82
2017-05-30T00:27:55.720Z,1004.86
2017-05-30T00:28:55.753Z,1004.8
2017-05-30T00:29:55.685Z,1004.83
2017-05-30T00:30:55.664Z,1004.87
2017-05-30T00:31:55.654Z,1004.83
2017-05-30T00:32:55.634Z,1004.77
2017-05-30T00:33:55.617Z,1004.8
2017-05-30T00:34:55.599Z,1004.82
2017-05-30T00:35:55.582Z,1004.81
2017-05-30T00:36:55.566Z,1004.79
2017-05-30T00:37:55.546Z,1004.78
2017-05-30T00:38:55.529Z,1004.76
2017-05-30T00:39:55.513Z,1004.75
2017-05-30T00:40:55.494Z,1004.73
2017-05-30T00:41:55.530Z,1004.71
2017-05-30T00:42:55.459Z,1004.76
2017-05-30T00:43:55.447Z,1004.76
2017-05-30T00:44:55.425Z,1004.74
2017-05-30T00:45:55.410Z,1004.66
2017-05-30T00:46:55.392Z,1004.69
2017-05-30T00:47:55.374Z,1004.67
2017-05-30T00:48:55.354Z,1004.71
2017-05-30T00:49:55.345Z,1004.74
2017-05-30T00:50:55.321Z,1004.72
2017-05-30T00:51:55.299Z,1004.71
2017-05-30T00:52:55.284Z,1004.72
2017-05-30T00:53:55.267Z,1004.73
2017-05-30T00:54:55.249Z,1004.74
2017-05-30T00:55:55.229Z,1004.77
2017-05-30T00:56:55.216Z,1004.8
2017-05-30T00:57:55.198Z,1004.84
2017-05-30T00:58:55.177Z,1004.83
2017-05-30T00:59:55.209Z,1004.8
2017-05-30T01:00:55.146Z,1004.84
2017-05-30T01:01:55.124Z,1004.8
2017-05-30T01:02:55.107Z,1004.89
2017-05-30T01:03:55.087Z,1004.95
2017-05-30T01:04:55.070Z,1004.98
2017-05-30T01:05:55.053Z,1005
2017-05-30T01:06:55.034Z,1005.02
2017-05-30T01:07:55.019Z,1005.05
2017-05-30T01:08:55.001Z,1004.98
2017-05-30T01:09:54.983Z,1005.04
2017-05-30T01:10:54.964Z,1005.08
2017-05-30T01:11:54.947Z,1005.07
2017-05-30T01:12:54.932Z,1005.08
2017-05-30T01:13:54.910Z,1005.1
2017-05-30T01:14:54.895Z,1005.04
2017-05-30T01:15:54.875Z,1005.08
2017-05-30T01:16:54.857Z,1005.08
2017-05-30T01:17:54.842Z,1005.08
2017-05-30T01:18:54.820Z,1005.07
2017-05-30T01:19:54.805Z,1005.11
2017-05-30T01:20:54.788Z,1005.06
2017-05-30T01:21:54.764Z,1005.02
2017-05-30T01:22:54.749Z,1005.01
2017-05-30T01:23:54.730Z,1005
2017-05-30T01:24:54.714Z,1004.96
2017-05-30T01:25:54.696Z,1004.97
2017-05-30T01:26:54.679Z,1004.93
2017-05-30T01:27:54.659Z,1004.94
2017-05-30T01:28:54.645Z,1004.97
2017-05-30T01:29:54.623Z,1004.94
2017-05-30T01:30:54.608Z,1004.94
2017-05-30T01:31:54.588Z,1004.94
2017-05-30T01:32:54.568Z,1004.92
2017-05-30T01:33:54.551Z,1004.84
2017-05-30T01:34:54.534Z,1004.78
2017-05-30T01:35:54.516Z,1004.74
2017-05-30T01:36:54.497Z,1004.74
2017-05-30T01:37:54.478Z,1004.72
2017-05-30T01:38:54.460Z,1004.77
2017-05-30T01:39:54.443Z,1004.76
2017-05-30T01:40:54.424Z,1004.82
2017-05-30T01:41:54.408Z,1004.81
2017-05-30T01:42:54.390Z,1004.81
2017-05-30T01:43:54.375Z,1004.78
2017-05-30T01:44:54.353Z,1004.8
2017-05-30T01:45:54.337Z,1004.79
2017-05-30T01:46:54.317Z,1004.86
2017-05-30T01:47:54.297Z,1004.89
2017-05-30T01:48:54.281Z,1004.95
2017-05-30T01:49:54.266Z,1004.93
2017-05-30T01:50:54.247Z,1005.02
2017-05-30T01:51:54.228Z,1005
2017-05-30T01:52:54.207Z,1005.08
2017-05-30T01:53:54.190Z,1005.07
2017-05-30T01:54:54.177Z,1005.11
2017-05-30T01:55:54.159Z,1005.06
2017-05-30T01:56:54.138Z,1005.02
2017-05-30T01:57:54.119Z,1005
2017-05-30T01:58:54.103Z,1005
2017-05-30T01:59:54.087Z,1004.98
2017-05-30T02:00:54.069Z,1004.96
2017-05-30T02:01:54.046Z,1004.96
2017-05-30T02:02:54.028Z,1004.92
2017-05-30T02:03:54.010Z,1004.9
2017-05-30T02:04:53.993Z,1004.9
2017-05-30T02:05:53.980Z,1004.89
2017-05-30T02:06:53.955Z,1004.91
2017-05-30T02:07:53.939Z,1004.92
2017-05-30T02:08:53.920Z,1004.92
2017-05-30T02:09:53.900Z,1004.91
2017-05-30T02:10:53.886Z,1004.87
2017-05-30T02:11:53.866Z,1004.89
2017-05-30T02:12:53.848Z,1004.88
2017-05-30T02:13:53.830Z,1004.82
2017-05-30T02:14:53.812Z,1004.73
2017-05-30T02:15:53.793Z,1004.75
2017-05-30T02:16:53.776Z,1004.69
2017-05-30T02:17:54.059Z,1004.64
2017-05-30T02:18:53.741Z,1004.63
2017-05-30T02:19:53.720Z,1004.69
2017-05-30T02:20:53.702Z,1004.81
2017-05-30T02:21:53.686Z,1004.91
2017-05-30T02:22:53.666Z,1005.02
2017-05-30T02:23:53.651Z,1005.11
2017-05-30T02:24:53.634Z,1005.12
2017-05-30T02:25:53.612Z,1005.17
2017-05-30T02:26:53.592Z,1005.14
2017-05-30T02:27:53.627Z,1005.14
2017-05-30T02:28:53.560Z,1005.15
2017-05-30T02:29:53.539Z,1005.19
2017-05-30T02:30:53.520Z,1005.26
2017-05-30T02:31:53.502Z,1005.28
2017-05-30T02:32:53.487Z,1005.27
2017-05-30T02:33:53.467Z,1005.26
2017-05-30T02:34:53.446Z,1005.35
2017-05-30T02:35:53.430Z,1005.35
2017-05-30T02:36:53.413Z,1005.36
2017-05-30T02:37:53.394Z,1005.3
2017-05-30T02:38:53.374Z,1005.35
2017-05-30T02:39:53.358Z,1005.37
2017-05-30T02:40:53.341Z,1005.35
2017-05-30T02:41:53.321Z,1005.41
2017-05-30T02:42:53.302Z,1005.37
2017-05-30T02:43:53.287Z,1005.39
2017-05-30T02:44:53.264Z,1005.32
2017-05-30T02:45:53.249Z,1005.28
2017-05-30T02:46:53.231Z,1005.33
2017-05-30T02:47:53.212Z,1005.32
2017-05-30T02:48:53.193Z,1005.32
2017-05-30T02:49:53.176Z,1005.31
2017-05-30T02:50:53.160Z,1005.32
2017-05-30T02:51:53.140Z,1005.31
2017-05-30T02:52:53.120Z,1005.26
2017-05-30T02:53:53.102Z,1005.22
2017-05-30T02:54:53.085Z,1005.24
2017-05-30T02:55:53.075Z,1005.29
2017-05-30T02:56:53.049Z,1005.32
2017-05-30T02:57:53.030Z,1005.33
2017-05-30T02:58:53.013Z,1005.29
2017-05-30T02:59:52.994Z,1005.35
2017-05-30T03:00:52.982Z,1005.31
2017-05-30T03:01:52.959Z,1005.36
2017-05-30T03:02:52.938Z,1005.35
2017-05-30T03:03:52.923Z,1005.33
2017-05-30T03:04:52.901Z,1005.35
2017-05-30T03:05:52.889Z,1005.41
2017-05-30T03:06:52.869Z,1005.41
2017-05-30T03:07:52.895Z,1005.34
2017-05-30T03:08:52.830Z,1005.33
2017-05-30T03:09:52.862Z,1005.36
2017-05-30T03:10:52.792Z,1005.32
2017-05-30T03:11:52.823Z,1005.33
2017-05-30T03:12:52.809Z,1005.32
2017-05-30T03:13:52.736Z,1005.28
2017-05-30T03:14:52.720Z,1005.3
2017-05-30T03:15:52.700Z,1005.38
2017-05-30T03:16:52.682Z,1005.36
2017-05-30T03:17:52.667Z,1005.44
2017-05-30T03:18:52.698Z,1005.45
2017-05-30T03:19:52.629Z,1005.45
2017-05-30T03:20:52.610Z,1005.49
2017-05-30T03:21:52.601Z,1005.53
2017-05-30T03:22:52.573Z,1005.56
2017-05-30T03:23:52.554Z,1005.52
2017-05-30T03:24:52.537Z,1005.58
2017-05-30T03:25:52.517Z,1005.6
2017-05-30T03:26:52.503Z,1005.63
2017-05-30T03:27:52.488Z,1005.67
2017-05-30T03:28:52.462Z,1005.64
2017-05-30T03:29:52.446Z,1005.66
2017-05-30T03:30:52.424Z,1005.66
2017-05-30T03:31:52.408Z,1005.69
2017-05-30T03:32:52.390Z,1005.66
2017-05-30T03:33:52.372Z,1005.68
2017-05-30T03:34:52.354Z,1005.69
2017-05-30T03:35:52.336Z,1005.7
2017-05-30T03:36:52.319Z,1005.67
2017-05-30T03:37:52.297Z,1005.75
2017-05-30T03:38:52.280Z,1005.75
2017-05-30T03:39:52.260Z,1005.77
2017-05-30T03:40:52.244Z,1005.77
2017-05-30T03:41:52.224Z,1005.79
2017-05-30T03:42:52.208Z,1005.8
2017-05-30T03:43:52.187Z,1005.83
2017-05-30T03:44:52.169Z,1005.81
2017-05-30T03:45:52.152Z,1005.81
2017-05-30T03:46:52.133Z,1005.84
2017-05-30T03:47:52.115Z,1005.83
2017-05-30T03:48:52.096Z,1005.88
2017-05-30T03:49:52.078Z,1005.89
2017-05-30T03:50:52.059Z,1005.92
2017-05-30T03:51:52.040Z,1005.94
2017-05-30T03:52:52.031Z,1005.91
2017-05-30T03:53:52.006Z,1005.93
2017-05-30T03:54:51.987Z,1005.94
2017-05-30T03:55:51.963Z,1005.94
2017-05-30T03:56:51.950Z,1005.95
2017-05-30T03:57:51.931Z,1005.96
2017-05-30T03:58:51.912Z,1005.95
2017-05-30T03:59:51.893Z,1005.96
2017-05-30T04:00:51.873Z,1005.94
2017-05-30T04:01:51.854Z,1005.93
2017-05-30T04:02:51.838Z,1005.87
2017-05-30T04:03:51.818Z,1005.92
2017-05-30T04:04:51.801Z,1005.89
2017-05-30T04:05:51.782Z,1005.95
2017-05-30T04:06:51.763Z,1005.93
2017-05-30T04:07:51.745Z,1005.97
2017-05-30T04:08:51.731Z,1005.96
2017-05-30T04:09:51.705Z,1005.91
2017-05-30T04:10:51.691Z,1005.95
2017-05-30T04:11:51.724Z,1006
2017-05-30T04:12:51.653Z,1005.96
2017-05-30T04:13:51.635Z,1005.98
2017-05-30T04:14:51.616Z,1005.94
2017-05-30T04:15:51.599Z,1005.97
2017-05-30T04:16:51.579Z,1005.97
2017-05-30T04:17:51.560Z,1006.04
2017-05-30T04:18:51.543Z,1006.01
2017-05-30T04:19:51.524Z,1006
2017-05-30T04:20:51.501Z,1006
2017-05-30T04:21:51.488Z,1006.03
2017-05-30T04:22:51.467Z,1006.04
2017-05-30T04:23:51.449Z,1006.02
2017-05-30T04:24:51.433Z,1006.06
2017-05-30T04:25:51.412Z,1006.08
2017-05-30T04:26:51.395Z,1006.11
2017-05-30T04:27:51.377Z,1006.15
2017-05-30T04:28:51.358Z,1006.12
2017-05-30T04:29:51.349Z,1006.08
2017-05-30T04:30:51.325Z,1006.06
2017-05-30T04:31:51.304Z,1006.11
2017-05-30T04:32:51.283Z,1006.13
2017-05-30T04:33:51.268Z,1006.08
2017-05-30T04:34:51.248Z,1006.1
2017-05-30T04:35:51.229Z,1006.1
2017-05-30T04:36:51.215Z,1006.07
2017-05-30T04:37:51.192Z,1006.09
2017-05-30T04:38:51.173Z,1006.01
2017-05-30T04:39:51.155Z,1006.02
2017-05-30T04:40:51.138Z,1006.06
2017-05-30T04:41:51.119Z,1006.07
2017-05-30T04:42:51.150Z,1006.06
2017-05-30T04:43:51.083Z,1006.05
2017-05-30T04:44:51.065Z,1006
2017-05-30T04:45:51.046Z,1006.08
2017-05-30T04:46:51.027Z,1006.12
2017-05-30T04:47:51.010Z,1006.14
2017-05-30T04:48:50.993Z,1006.13
2017-05-30T04:49:50.976Z,1006.15
2017-05-30T04:50:50.959Z,1006.18
2017-05-30T04:51:50.939Z,1006.23
2017-05-30T04:52:50.920Z,1006.19
2017-05-30T04:53:50.901Z,1006.23
2017-05-30T04:54:50.887Z,1006.22
2017-05-30T04:55:50.866Z,1006.23
2017-05-30T04:56:50.849Z,1006.27
2017-05-30T04:57:50.830Z,1006.25
2017-05-30T04:58:50.811Z,1006.24
2017-05-30T04:59:50.796Z,1006.24
2017-05-30T05:00:50.779Z,1006.19
2017-05-30T05:01:50.758Z,1006.21
2017-05-30T05:02:50.741Z,1006.2
2017-05-30T05:03:50.721Z,1006.23
2017-05-30T05:04:50.703Z,1006.17
2017-05-30T05:05:50.686Z,1006.23
2017-05-30T05:06:50.669Z,1006.23
2017-05-30T05:07:50.652Z,1006.21
2017-05-30T05:08:50.641Z,1006.19
2017-05-30T05:09:50.615Z,1006.2
2017-05-30T05:10:50.597Z,1006.19
2017-05-30T05:11:50.580Z,1006.25
2017-05-30T05:12:50.561Z,1006.21
2017-05-30T05:13:50.543Z,1006.27
2017-05-30T05:14:50.536Z,1006.26
2017-05-30T05:15:50.508Z,1006.27
2017-05-30T05:16:50.490Z,1006.23
2017-05-30T05:17:50.473Z,1006.27
2017-05-30T05:18:50.458Z,1006.28
2017-05-30T05:19:50.436Z,1006.27
2017-05-30T05:20:50.419Z,1006.35
2017-05-30T05:21:50.403Z,1006.29
2017-05-30T05:22:50.385Z,1006.33
2017-05-30T05:23:50.367Z,1006.28
2017-05-30T05:24:50.359Z,1006.32
2017-05-30T05:25:50.333Z,1006.33
2017-05-30T05:26:50.321Z,1006.34
2017-05-30T05:27:50.301Z,1006.28
2017-05-30T05:28:50.284Z,1006.31
2017-05-30T05:29:50.266Z,1006.27
2017-05-30T05:30:50.276Z,1006.32
2017-05-30T05:31:50.237Z,1006.31
2017-05-30T05:32:50.220Z,1006.32
2017-05-30T05:33:50.208Z,1006.33
2017-05-30T05:34:50.189Z,1006.35
2017-05-30T05:35:50.174Z,1006.34
2017-05-30T05:36:50.157Z,1006.36
2017-05-30T05:37:50.145Z,1006.34
2017-05-30T05:38:50.126Z,1006.35
2017-05-30T05:39:50.112Z,1006.37
2017-05-30T05:40:50.095Z,1006.37
2017-05-30T05:41:50.083Z,1006.38
2017-05-30T05:42:50.069Z,1006.46
2017-05-30T05:43:50.053Z,1006.44
2017-05-30T05:44:50.038Z,1006.49
2017-05-30T05:45:50.025Z,1006.5
2017-05-30T05:46:50.014Z,1006.5
2017-05-30T05:47:49.995Z,1006.52
2017-05-30T05:48:49.982Z,1006.51
2017-05-30T05:49:49.966Z,1006.58
2017-05-30T05:50:49.954Z,1006.62
2017-05-30T05:51:49.940Z,1006.6
2017-05-30T05:52:49.922Z,1006.6
2017-05-30T05:53:49.907Z,1006.62
2017-05-30T05:54:49.895Z,1006.6
2017-05-30T05:55:49.878Z,1006.59
2017-05-30T05:56:49.866Z,1006.62
2017-05-30T05:57:49.845Z,1006.66
2017-05-30T05:58:49.832Z,1006.72
2017-05-30T05:59:49.822Z,1006.68
2017-05-30T06:00:49.801Z,1006.68
2017-05-30T06:01:49.788Z,1006.66
2017-05-30T06:02:49.770Z,1006.67
2017-05-30T06:03:49.757Z,1006.64
2017-05-30T06:04:49.744Z,1006.73
2017-05-30T06:05:49.728Z,1006.71
2017-05-30T06:06:49.712Z,1006.73
2017-05-30T06:07:49.700Z,1006.76
2017-05-30T06:08:49.685Z,1006.81
2017-05-30T06:09:49.670Z,1006.84
2017-05-30T06:10:49.655Z,1006.8
2017-05-30T06:11:49.649Z,1006.84
2017-05-30T06:12:49.628Z,1006.85
2017-05-30T06:13:49.617Z,1006.89
2017-05-30T06:14:49.600Z,1006.91
2017-05-30T06:15:49.587Z,1006.91
2017-05-30T06:16:49.573Z,1006.92
2017-05-30T06:17:49.560Z,1006.91
2017-05-30T06:18:49.545Z,1006.92
2017-05-30T06:19:49.533Z,1006.94
2017-05-30T06:20:49.519Z,1006.93
2017-05-30T06:21:49.505Z,1006.89
2017-05-30T06:22:49.492Z,1006.95
2017-05-30T06:23:49.481Z,1006.87
2017-05-30T06:24:49.463Z,1006.91
2017-05-30T06:25:49.451Z,1006.91
2017-05-30T06:26:49.443Z,1006.94
2017-05-30T06:27:49.430Z,1006.94
2017-05-30T06:28:49.417Z,1006.98
2017-05-30T06:29:49.404Z,1006.98
2017-05-30T06:30:49.391Z,1006.99
2017-05-30T06:31:49.380Z,1006.97
2017-05-30T06:32:49.366Z,1006.99
2017-05-30T06:33:49.358Z,1007
2017-05-30T06:34:49.342Z,1006.96
2017-05-30T06:35:49.328Z,1006.9
2017-05-30T06:36:49.315Z,1007
2017-05-30T06:37:49.305Z,1006.99
2017-05-30T06:38:49.295Z,1006.92
2017-05-30T06:39:49.280Z,1006.93
2017-05-30T06:40:49.267Z,1006.94
2017-05-30T06:41:49.255Z,1006.95
2017-05-30T06:42:49.241Z,1007.01
2017-05-30T06:43:49.233Z,1007.06
2017-05-30T06:44:49.218Z,1007.03
2017-05-30T06:45:49.206Z,1007
2017-05-30T06:46:49.195Z,1006.97
2017-05-30T06:47:49.184Z,1007.03
2017-05-30T06:48:49.173Z,1007.02
2017-05-30T06:49:49.167Z,1007.09
2017-05-30T06:50:49.150Z,1007.05
2017-05-30T06:51:49.143Z,1007.08
2017-05-30T06:52:49.130Z,1007.09
2017-05-30T06:53:49.124Z,1007.06
2017-05-30T06:54:49.109Z,1007.08
2017-05-30T06:55:49.098Z,1007.12
2017-05-30T06:56:49.087Z,1007.15
2017-05-30T06:57:49.076Z,1007.12
2017-05-30T06:58:49.064Z,1007.11
2017-05-30T06:59:49.052Z,1007.11
2017-05-30T07:00:49.040Z,1007.17
2017-05-30T07:01:49.029Z,1007.16
2017-05-30T07:02:49.081Z,1007.14
2017-05-30T07:03:49.005Z,1007.2
2017-05-30T07:04:48.995Z,1007.18
2017-05-30T07:05:48.980Z,1007.22
2017-05-30T07:06:48.967Z,1007.24
2017-05-30T07:07:48.956Z,1007.22
2017-05-30T07:08:48.944Z,1007.19
2017-05-30T07:09:48.926Z,1007.2
2017-05-30T07:10:48.914Z,1007.18
2017-05-30T07:11:48.904Z,1007.19
2017-05-30T07:12:48.887Z,1007.27
2017-05-30T07:13:48.883Z,1007.24
2017-05-30T07:14:48.862Z,1007.25
2017-05-30T07:15:48.846Z,1007.23
2017-05-30T07:16:48.839Z,1007.21
2017-05-30T07:17:48.819Z,1007.26
2017-05-30T07:18:48.808Z,1007.28
2017-05-30T07:19:48.789Z,1007.25
2017-05-30T07:20:48.775Z,1007.27
2017-05-30T07:21:48.766Z,1007.31
2017-05-30T07:22:48.750Z,1007.28
2017-05-30T07:23:48.731Z,1007.28
2017-05-30T07:24:48.719Z,1007.3
2017-05-30T07:25:48.704Z,1007.31
2017-05-30T07:26:48.688Z,1007.34
2017-05-30T07:27:48.674Z,1007.32
2017-05-30T07:28:48.660Z,1007.34
2017-05-30T07:29:48.648Z,1007.34
2017-05-30T07:30:48.632Z,1007.38
2017-05-30T07:31:48.618Z,1007.35
2017-05-30T07:32:48.604Z,1007.37
2017-05-30T07:33:48.598Z,1007.33
2017-05-30T07:34:48.574Z,1007.31
2017-05-30T07:35:48.562Z,1007.33
2017-05-30T07:36:48.548Z,1007.31
2017-05-30T07:37:48.532Z,1007.29
2017-05-30T07:38:48.518Z,1007.25
2017-05-30T07:39:48.505Z,1007.28
2017-05-30T07:40:48.496Z,1007.3
2017-05-30T07:41:48.477Z,1007.18
2017-05-30T07:42:48.467Z,1007.22
2017-05-30T07:43:48.450Z,1007.25
2017-05-30T07:44:48.437Z,1007.16
2017-05-30T07:45:48.428Z,1007.23
2017-05-30T07:46:48.413Z,1007.23
2017-05-30T07:47:48.401Z,1007.23
2017-05-30T07:48:48.389Z,1007.2
2017-05-30T07:49:48.378Z,1007.28
2017-05-30T07:50:48.370Z,1007.28
2017-05-30T07:51:48.361Z,1007.23
2017-05-30T07:52:48.350Z,1007.24
2017-05-30T07:53:48.340Z,1007.27
2017-05-30T07:54:48.330Z,1007.3
2017-05-30T07:55:48.319Z,1007.24
2017-05-30T07:56:48.319Z,1007.24
2017-05-30T07:57:48.355Z,1007.22
2017-05-30T07:58:48.300Z,1007.21
2017-05-30T07:59:48.288Z,1007.23
2017-05-30T08:00:48.279Z,1007.26
2017-05-30T08:01:48.272Z,1007.22
2017-05-30T08:02:48.267Z,1007.2
2017-05-30T08:03:48.260Z,1007.22
2017-05-30T08:04:48.252Z,1007.22
2017-05-30T08:05:48.243Z,1007.23
2017-05-30T08:06:48.235Z,1007.25
2017-05-30T08:07:48.230Z,1007.27
2017-05-30T08:08:48.222Z,1007.29
2017-05-30T08:09:48.215Z,1007.29
2017-05-30T08:10:48.211Z,1007.27
2017-05-30T08:11:48.203Z,1007.32
2017-05-30T08:12:48.197Z,1007.28
2017-05-30T08:13:48.190Z,1007.33
2017-05-30T08:14:48.184Z,1007.31
2017-05-30T08:15:48.177Z,1007.38
2017-05-30T08:16:48.170Z,1007.32
2017-05-30T08:17:48.167Z,1007.33
2017-05-30T08:18:48.160Z,1007.29
2017-05-30T08:19:48.155Z,1007.28
2017-05-30T08:20:48.153Z,1007.25
2017-05-30T08:21:48.143Z,1007.29
2017-05-30T08:22:48.191Z,1007.28
2017-05-30T08:23:48.142Z,1007.32
2017-05-30T08:24:48.134Z,1007.28
2017-05-30T08:25:48.124Z,1007.31
2017-05-30T08:26:48.120Z,1007.29
2017-05-30T08:27:48.166Z,1007.3
2017-05-30T08:28:48.120Z,1007.38
2017-05-30T08:29:48.108Z,1007.28
2017-05-30T08:30:48.103Z,1007.35
2017-05-30T08:31:48.102Z,1007.32
2017-05-30T08:32:48.096Z,1007.33
2017-05-30T08:33:48.093Z,1007.34
2017-05-30T08:34:48.091Z,1007.33
2017-05-30T08:35:48.082Z,1007.3
2017-05-30T08:36:48.088Z,1007.31
2017-05-30T08:37:48.075Z,1007.31
2017-05-30T08:38:48.071Z,1007.34
2017-05-30T08:39:48.063Z,1007.27
2017-05-30T08:40:48.060Z,1007.28
2017-05-30T08:41:48.109Z,1007.26
2017-05-30T08:42:48.056Z,1007.32
2017-05-30T08:43:48.050Z,1007.32
2017-05-30T08:44:48.050Z,1007.32
2017-05-30T08:45:48.042Z,1007.38
2017-05-30T08:46:48.039Z,1007.37
2017-05-30T08:47:48.036Z,1007.33
2017-05-30T08:48:48.038Z,1007.35
2017-05-30T08:49:48.030Z,1007.35
2017-05-30T08:50:48.020Z,1007.36
2017-05-30T08:51:48.023Z,1007.39
2017-05-30T08:52:48.016Z,1007.39
2017-05-30T08:53:48.010Z,1007.34
2017-05-30T08:54:48.004Z,1007.36
2017-05-30T08:55:48.004Z,1007.3
2017-05-30T08:56:47.995Z,1007.31
2017-05-30T08:57:48.040Z,1007.35
2017-05-30T08:58:47.993Z,1007.36
2017-05-30T08:59:47.982Z,1007.3
2017-05-30T09:00:47.976Z,1007.34
2017-05-30T09:01:47.980Z,1007.31
2017-05-30T09:02:47.969Z,1007.31
2017-05-30T09:03:47.965Z,1007.35
2017-05-30T09:04:47.963Z,1007.31
2017-05-30T09:05:47.954Z,1007.3
2017-05-30T09:06:47.951Z,1007.35
2017-05-30T09:07:47.949Z,1007.39
2017-05-30T09:08:47.945Z,1007.38
2017-05-30T09:09:47.942Z,1007.43
2017-05-30T09:10:47.936Z,1007.4
2017-05-30T09:11:47.934Z,1007.43
2017-05-30T09:12:47.932Z,1007.43
2017-05-30T09:13:47.925Z,1007.42
2017-05-30T09:14:47.924Z,1007.38
2017-05-30T09:15:47.919Z,1007.37
2017-05-30T09:16:47.913Z,1007.42
2017-05-30T09:17:47.912Z,1007.4
2017-05-30T09:18:47.910Z,1007.43
2017-05-30T09:19:47.955Z,1007.4
2017-05-30T09:20:47.900Z,1007.37
2017-05-30T09:21:47.901Z,1007.46
2017-05-30T09:22:47.894Z,1007.46
2017-05-30T09:23:47.888Z,1007.49
2017-05-30T09:24:48.186Z,1007.46
2017-05-30T09:25:47.884Z,1007.48
2017-05-30T09:26:47.880Z,1007.49
2017-05-30T09:27:47.885Z,1007.5
2017-05-30T09:28:47.872Z,1007.47
2017-05-30T09:29:47.870Z,1007.47
2017-05-30T09:30:47.864Z,1007.48
2017-05-30T09:31:47.860Z,1007.49
2017-05-30T09:32:47.861Z,1007.51
2017-05-30T09:33:47.853Z,1007.53
2017-05-30T09:34:47.849Z,1007.5
2017-05-30T09:35:47.843Z,1007.54
2017-05-30T09:36:47.846Z,1007.54
2017-05-30T09:37:47.838Z,1007.61
2017-05-30T09:38:47.832Z,1007.63
2017-05-30T09:39:47.877Z,1007.57
2017-05-30T09:40:47.822Z,1007.57
2017-05-30T09:41:47.815Z,1007.58
2017-05-30T09:42:47.814Z,1007.6
2017-05-30T09:43:47.803Z,1007.59
2017-05-30T09:44:47.796Z,1007.6
2017-05-30T09:45:47.791Z,1007.62
2017-05-30T09:46:47.785Z,1007.59
2017-05-30T09:47:47.779Z,1007.57
2017-05-30T09:48:47.769Z,1007.57
2017-05-30T09:49:47.763Z,1007.54
2017-05-30T09:50:47.755Z,1007.63
2017-05-30T09:51:47.751Z,1007.62
2017-05-30T09:52:47.741Z,1007.55
2017-05-30T09:53:47.734Z,1007.6
2017-05-30T09:54:47.777Z,1007.66
2017-05-30T09:55:47.719Z,1007.65
2017-05-30T09:56:47.712Z,1007.62
2017-05-30T09:57:47.704Z,1007.62
2017-05-30T09:58:47.699Z,1007.61
2017-05-30T09:59:47.688Z,1007.68
2017-05-30T10:00:47.681Z,1007.67
2017-05-30T10:01:47.675Z,1007.67
2017-05-30T10:02:47.668Z,1007.66
2017-05-30T10:03:47.664Z,1007.59
2017-05-30T10:04:47.656Z,1007.53
2017-05-30T10:05:47.653Z,1007.55
2017-05-30T10:06:47.701Z,1007.54
2017-05-30T10:07:47.641Z,1007.56
2017-05-30T10:08:47.636Z,1007.55
2017-05-30T10:09:47.628Z,1007.61
2017-05-30T10:10:47.621Z,1007.56
2017-05-30T10:11:47.617Z,1007.6
2017-05-30T10:12:47.610Z,1007.57
2017-05-30T10:13:47.603Z,1007.64
2017-05-30T10:14:47.596Z,1007.61
2017-05-30T10:15:47.588Z,1007.66
2017-05-30T10:16:47.591Z,1007.65
2017-05-30T10:17:47.577Z,1007.69
2017-05-30T10:18:47.568Z,1007.7
2017-05-30T10:19:47.563Z,1007.7
2017-05-30T10:20:47.556Z,1007.65
2017-05-30T10:21:47.547Z,1007.57
2017-05-30T10:22:47.592Z,1007.59
2017-05-30T10:23:47.537Z,1007.59
2017-05-30T10:24:47.530Z,1007.61
2017-05-30T10:25:47.524Z,1007.62
2017-05-30T10:26:47.516Z,1007.62
2017-05-30T10:27:47.511Z,1007.62
2017-05-30T10:28:47.498Z,1007.63
2017-05-30T10:29:47.491Z,1007.67
2017-05-30T10:30:47.485Z,1007.63
2017-05-30T10:31:47.476Z,1007.69
2017-05-30T10:32:47.468Z,1007.63
2017-05-30T10:33:47.460Z,1007.67
2017-05-30T10:34:47.456Z,1007.66
2017-05-30T10:35:47.446Z,1007.71
2017-05-30T10:36:47.434Z,1007.74
2017-05-30T10:37:47.425Z,1007.7
2017-05-30T10:38:47.415Z,1007.68
2017-05-30T10:39:47.407Z,1007.69
2017-05-30T10:40:47.401Z,1007.62
2017-05-30T10:41:47.391Z,1007.6
2017-05-30T10:42:47.385Z,1007.65
2017-05-30T10:43:47.376Z,1007.6
2017-05-30T10:44:47.369Z,1007.62
2017-05-30T10:45:47.358Z,1007.6
2017-05-30T10:46:47.353Z,1007.58
2017-05-30T10:47:47.394Z,1007.58
2017-05-30T10:48:47.342Z,1007.6
2017-05-30T10:49:47.332Z,1007.55
2017-05-30T10:50:47.322Z,1007.5
2017-05-30T10:51:47.316Z,1007.49
2017-05-30T10:52:47.315Z,1007.47
2017-05-30T10:53:47.306Z,1007.45
2017-05-30T10:54:47.295Z,1007.42
2017-05-30T10:55:47.297Z,1007.46
2017-05-30T10:56:47.290Z,1007.45
2017-05-30T10:57:47.280Z,1007.39
2017-05-30T10:58:47.273Z,1007.41
2017-05-30T10:59:47.268Z,1007.4
2017-05-30T11:00:47.263Z,1007.34
2017-05-30T11:01:47.259Z,1007.39
2017-05-30T11:02:47.250Z,1007.41
2017-05-30T11:03:47.247Z,1007.43
2017-05-30T11:04:47.240Z,1007.39
2017-05-30T11:05:47.233Z,1007.35
2017-05-30T11:06:47.224Z,1007.41
2017-05-30T11:07:47.217Z,1007.42
2017-05-30T11:08:47.213Z,1007.42
2017-05-30T11:09:47.206Z,1007.47
2017-05-30T11:10:47.199Z,1007.43
2017-05-30T11:11:47.196Z,1007.37
2017-05-30T11:12:47.188Z,1007.4
2017-05-30T11:13:47.175Z,1007.41
2017-05-30T11:14:47.170Z,1007.5
2017-05-30T11:15:47.159Z,1007.52
2017-05-30T11:16:47.149Z,1007.52
2017-05-30T11:17:47.139Z,1007.51
2017-05-30T11:18:47.136Z,1007.56
2017-05-30T11:19:47.123Z,1007.51
2017-05-30T11:20:47.111Z,1007.45
2017-05-30T11:21:47.103Z,1007.41
2017-05-30T11:22:47.094Z,1007.43
2017-05-30T11:23:47.080Z,1007.41
2017-05-30T11:24:47.077Z,1007.43
2017-05-30T11:25:47.069Z,1007.43
2017-05-30T11:26:47.053Z,1007.45
2017-05-30T11:27:47.044Z,1007.41
2017-05-30T11:28:47.031Z,1007.45
2017-05-30T11:29:47.020Z,1007.44
2017-05-30T11:30:47.006Z,1007.45
2017-05-30T11:31:46.993Z,1007.43
2017-05-30T11:32:46.984Z,1007.44
2017-05-30T11:33:46.971Z,1007.43
2017-05-30T11:34:46.964Z,1007.45
2017-05-30T11:35:46.946Z,1007.37
2017-05-30T11:36:46.933Z,1007.41
2017-05-30T11:37:46.921Z,1007.42
2017-05-30T11:38:46.908Z,1007.49
2017-05-30T11:39:46.895Z,1007.44
2017-05-30T11:40:46.882Z,1007.44
2017-05-30T11:41:46.871Z,1007.44
2017-05-30T11:42:46.856Z,1007.42
2017-05-30T11:43:46.843Z,1007.38
2017-05-30T11:44:46.832Z,1007.43
2017-05-30T11:45:46.819Z,1007.37
2017-05-30T11:46:46.806Z,1007.4
2017-05-30T11:47:46.792Z,1007.42
2017-05-30T11:48:46.783Z,1007.42
2017-05-30T11:49:46.763Z,1007.42
2017-05-30T11:50:46.752Z,1007.47
2017-05-30T11:51:46.741Z,1007.48
2017-05-30T11:52:46.726Z,1007.53
2017-05-30T11:53:46.711Z,1007.49
2017-05-30T11:54:46.697Z,1007.54
2017-05-30T11:55:46.688Z,1007.5
2017-05-30T11:56:46.674Z,1007.46
2017-05-30T11:57:46.661Z,1007.5
2017-05-30T11:58:46.646Z,1007.47
2017-05-30T11:59:46.635Z,1007.48
2017-05-30T12:00:46.625Z,1007.49
2017-05-30T12:01:46.605Z,1007.57
2017-05-30T12:02:46.591Z,1007.54
2017-05-30T12:03:46.580Z,1007.55
2017-05-30T12:04:46.563Z,1007.54
2017-05-30T12:05:46.552Z,1007.52
2017-05-30T12:06:46.537Z,1007.48
2017-05-30T12:07:46.522Z,1007.49
2017-05-30T12:08:46.510Z,1007.49